sensor_id;sensor_type;location;lat;lon;timestamp;pressure;altitude;pressure_sealevel;temperature;humidity
6349;BME280;3207;42.648;23.406;2022-10-16T00:02:14;100388.63;;;15.56;89.14
6349;BME280;3207;42.648;23.406;2022-10-16T00:04:41;100381.91;;;15.52;89.36
6349;BME280;3207;42.648;23.406;2022-10-16T00:07:07;100379.81;;;15.46;89.81
6349;BME280;3207;42.648;23.406;2022-10-16T00:09:34;100378.41;;;15.42;90.42
6349;BME280;3207;42.648;23.406;2022-10-16T00:12:03;100373.38;;;15.38;90.09
6349;BME280;3207;42.648;23.406;2022-10-16T00:14:32;100369.63;;;15.31;90.45
6349;BME280;3207;42.648;23.406;2022-10-16T00:16:58;100367.97;;;15.30;91.03
6349;BME280;3207;42.648;23.406;2022-10-16T00:19:25;100377.78;;;15.28;91.35
6349;BME280;3207;42.648;23.406;2022-10-16T00:21:52;100370.16;;;15.25;91.47
6349;BME280;3207;42.648;23.406;2022-10-16T00:24:19;100365.88;;;15.24;91.83
6349;BME280;3207;42.648;23.406;2022-10-16T00:26:49;100366.97;;;15.22;91.90
6349;BME280;3207;42.648;23.406;2022-10-16T00:29:17;100372.22;;;15.22;92.30
6349;BME280;3207;42.648;23.406;2022-10-16T00:31:44;100374.03;;;15.21;92.09
6349;BME280;3207;42.648;23.406;2022-10-16T00:34:11;100324.69;;;14.93;92.39
6349;BME280;3207;42.648;23.406;2022-10-16T00:36:37;100381.91;;;15.21;93.04
6349;BME280;3207;42.648;23.406;2022-10-16T00:39:05;100371.38;;;15.21;92.64
6349;BME280;3207;42.648;23.406;2022-10-16T00:41:32;100381.78;;;15.23;92.88
6349;BME280;3207;42.648;23.406;2022-10-16T00:44:01;100386.94;;;15.24;93.09
6349;BME280;3207;42.648;23.406;2022-10-16T00:46:34;100388.72;;;15.24;93.10
6349;BME280;3207;42.648;23.406;2022-10-16T00:49:05;100374.97;;;15.20;93.23
6349;BME280;3207;42.648;23.406;2022-10-16T00:51:34;100381.78;;;15.23;93.19
6349;BME280;3207;42.648;23.406;2022-10-16T00:54:02;100381.38;;;15.27;93.58
6349;BME280;3207;42.648;23.406;2022-10-16T00:56:31;100387.47;;;15.28;93.48
6349;BME280;3207;42.648;23.406;2022-10-16T00:58:59;100379.59;;;15.28;93.57
6349;BME280;3207;42.648;23.406;2022-10-16T01:01:29;100377.78;;;15.28;93.74
6349;BME280;3207;42.648;23.406;2022-10-16T01:03:56;100386.38;;;15.30;93.60
6349;BME280;3207;42.648;23.406;2022-10-16T01:06:24;100375.25;;;15.17;93.62
6349;BME280;3207;42.648;23.406;2022-10-16T01:09:03;100390.25;;;15.26;93.63
6349;BME280;3207;42.648;23.406;2022-10-16T01:11:38;100387.91;;;15.23;93.55
6349;BME280;3207;42.648;23.406;2022-10-16T01:14:14;100385.34;;;15.12;93.10
6349;BME280;3207;42.648;23.406;2022-10-16T01:16:46;100392.00;;;15.16;93.22
6349;BME280;3207;42.648;23.406;2022-10-16T01:19:20;100381.75;;;15.13;93.00
6349;BME280;3207;42.648;23.406;2022-10-16T01:21:53;100395.16;;;15.10;93.19
6349;BME280;3207;42.648;23.406;2022-10-16T01:24:27;100388.50;;;15.06;93.10
6349;BME280;3207;42.648;23.406;2022-10-16T01:27:10;100389.03;;;15.00;92.95
6349;BME280;3207;42.648;23.406;2022-10-16T01:29:44;100380.25;;;14.90;93.16
6349;BME280;3207;42.648;23.406;2022-10-16T01:32:17;100387.88;;;14.93;93.10
6349;BME280;3207;42.648;23.406;2022-10-16T01:34:49;100386.47;;;14.89;93.16
6349;BME280;3207;42.648;23.406;2022-10-16T01:37:25;100388.38;;;14.87;93.13
6349;BME280;3207;42.648;23.406;2022-10-16T01:39:59;100402.50;;;14.86;93.18
6349;BME280;3207;42.648;23.406;2022-10-16T01:42:31;100400.84;;;14.85;93.30
6349;BME280;3207;42.648;23.406;2022-10-16T01:45:02;100409.69;;;14.84;93.50
6349;BME280;3207;42.648;23.406;2022-10-16T01:47:31;100413.31;;;14.83;93.38
6349;BME280;3207;42.648;23.406;2022-10-16T01:50:01;100419.53;;;14.82;93.35
6349;BME280;3207;42.648;23.406;2022-10-16T01:52:31;100400.22;;;14.72;93.43
6349;BME280;3207;42.648;23.406;2022-10-16T01:55:02;100408.53;;;14.77;93.83
6349;BME280;3207;42.648;23.406;2022-10-16T01:57:35;100401.44;;;14.68;94.07
6349;BME280;3207;42.648;23.406;2022-10-16T02:00:07;100418.13;;;14.78;93.98
6349;BME280;3207;42.648;23.406;2022-10-16T02:02:35;100413.81;;;14.77;94.53
6349;BME280;3207;42.648;23.406;2022-10-16T02:05:06;100413.94;;;14.75;94.34
6349;BME280;3207;42.648;23.406;2022-10-16T02:07:36;100406.16;;;14.74;93.95
6349;BME280;3207;42.648;23.406;2022-10-16T02:10:03;100411.94;;;14.68;94.29
6349;BME280;3207;42.648;23.406;2022-10-16T02:12:33;100414.47;;;14.69;94.20
6349;BME280;3207;42.648;23.406;2022-10-16T02:15:01;100419.84;;;14.68;94.27
6349;BME280;3207;42.648;23.406;2022-10-16T02:17:28;100422.47;;;14.68;94.61
6349;BME280;3207;42.648;23.406;2022-10-16T02:19:56;100414.59;;;14.68;94.41
6349;BME280;3207;42.648;23.406;2022-10-16T02:22:27;100431.44;;;14.65;94.57
6349;BME280;3207;42.648;23.406;2022-10-16T02:24:58;100428.09;;;14.63;94.51
6349;BME280;3207;42.648;23.406;2022-10-16T02:27:28;100429.22;;;14.60;94.61
6349;BME280;3207;42.648;23.406;2022-10-16T02:30:04;100430.31;;;14.58;94.38
6349;BME280;3207;42.648;23.406;2022-10-16T02:32:35;100431.97;;;14.59;94.31
6349;BME280;3207;42.648;23.406;2022-10-16T02:35:04;100428.38;;;14.60;94.53
6349;BME280;3207;42.648;23.406;2022-10-16T02:37:32;100427.53;;;14.59;95.00
6349;BME280;3207;42.648;23.406;2022-10-16T02:40:00;100427.28;;;14.62;94.92
6349;BME280;3207;42.648;23.406;2022-10-16T02:42:28;100424.09;;;14.59;95.12
6349;BME280;3207;42.648;23.406;2022-10-16T02:44:56;100435.03;;;14.64;94.73
6349;BME280;3207;42.648;23.406;2022-10-16T02:47:24;100433.13;;;14.66;94.52
6349;BME280;3207;42.648;23.406;2022-10-16T02:49:51;100438.25;;;14.68;94.49
6349;BME280;3207;42.648;23.406;2022-10-16T02:52:18;100433.97;;;14.67;94.43
6349;BME280;3207;42.648;23.406;2022-10-16T02:54:44;100438.97;;;14.70;94.86
6349;BME280;3207;42.648;23.406;2022-10-16T02:57:11;100435.38;;;14.71;94.65
6349;BME280;3207;42.648;23.406;2022-10-16T02:59:38;100439.69;;;14.72;94.77
6349;BME280;3207;42.648;23.406;2022-10-16T03:02:05;100436.06;;;14.73;94.97
6349;BME280;3207;42.648;23.406;2022-10-16T03:04:33;100436.06;;;14.73;94.51
6349;BME280;3207;42.648;23.406;2022-10-16T03:07:00;100431.09;;;14.70;94.69
6349;BME280;3207;42.648;23.406;2022-10-16T03:09:27;100441.72;;;14.68;94.63
6349;BME280;3207;42.648;23.406;2022-10-16T03:11:54;100434.91;;;14.65;94.53
6349;BME280;3207;42.648;23.406;2022-10-16T03:14:21;100436.16;;;14.61;94.50
6349;BME280;3207;42.648;23.406;2022-10-16T03:16:47;100437.22;;;14.59;94.37
6349;BME280;3207;42.648;23.406;2022-10-16T03:19:15;100433.06;;;14.56;94.45
6349;BME280;3207;42.648;23.406;2022-10-16T03:21:44;100441.19;;;14.53;94.66
6349;BME280;3207;42.648;23.406;2022-10-16T03:24:11;100445.75;;;14.51;94.85
6349;BME280;3207;42.648;23.406;2022-10-16T03:26:38;100444.09;;;14.50;94.35
6349;BME280;3207;42.648;23.406;2022-10-16T03:29:05;100447.69;;;14.49;94.98
6349;BME280;3207;42.648;23.406;2022-10-16T03:31:32;100456.53;;;14.48;95.12
6349;BME280;3207;42.648;23.406;2022-10-16T03:33:59;100459.53;;;14.44;94.65
6349;BME280;3207;42.648;23.406;2022-10-16T03:36:25;100452.72;;;14.41;94.75
6349;BME280;3207;42.648;23.406;2022-10-16T03:38:54;100455.59;;;14.38;94.81
6349;BME280;3207;42.648;23.406;2022-10-16T03:41:20;100466.94;;;14.39;94.87
6349;BME280;3207;42.648;23.406;2022-10-16T03:43:47;100461.69;;;14.39;94.53
6349;BME280;3207;42.648;23.406;2022-10-16T03:46:14;100468.00;;;14.36;94.60
6349;BME280;3207;42.648;23.406;2022-10-16T03:48:41;100448.81;;;14.24;94.59
6349;BME280;3207;42.648;23.406;2022-10-16T03:51:08;100470.16;;;14.31;94.54
6349;BME280;3207;42.648;23.406;2022-10-16T03:53:34;100482.63;;;14.29;94.29
6349;BME280;3207;42.648;23.406;2022-10-16T03:56:03;100470.78;;;14.23;94.14
6349;BME280;3207;42.648;23.406;2022-10-16T03:58:29;100476.44;;;14.19;94.17
6349;BME280;3207;42.648;23.406;2022-10-16T04:00:56;100479.44;;;14.14;94.10
6349;BME280;3207;42.648;23.406;2022-10-16T04:03:23;100482.56;;;14.08;93.96
6349;BME280;3207;42.648;23.406;2022-10-16T04:05:50;100482.06;;;14.03;94.06
6349;BME280;3207;42.648;23.406;2022-10-16T04:08:17;100487.00;;;13.97;94.31
6349;BME280;3207;42.648;23.406;2022-10-16T04:10:44;100480.06;;;13.96;94.55
6349;BME280;3207;42.648;23.406;2022-10-16T04:13:12;100473.59;;;13.88;94.71
6349;BME280;3207;42.648;23.406;2022-10-16T04:15:39;100482.91;;;13.92;94.58
6349;BME280;3207;42.648;23.406;2022-10-16T04:18:06;100489.13;;;13.91;95.07
6349;BME280;3207;42.648;23.406;2022-10-16T04:20:33;100475.03;;;13.81;95.18
6349;BME280;3207;42.648;23.406;2022-10-16T04:23:00;100491.03;;;13.89;94.99
6349;BME280;3207;42.648;23.406;2022-10-16T04:25:27;100492.00;;;13.88;95.01
6349;BME280;3207;42.648;23.406;2022-10-16T04:27:55;100491.16;;;13.88;95.14
6349;BME280;3207;42.648;23.406;2022-10-16T04:30:23;100499.88;;;13.88;95.14
6349;BME280;3207;42.648;23.406;2022-10-16T04:32:50;100499.88;;;13.88;95.33
6349;BME280;3207;42.648;23.406;2022-10-16T04:35:19;100497.25;;;13.88;95.33
6349;BME280;3207;42.648;23.406;2022-10-16T04:37:46;100503.50;;;13.87;95.45
6349;BME280;3207;42.648;23.406;2022-10-16T04:40:13;100505.97;;;13.89;95.83
6349;BME280;3207;42.648;23.406;2022-10-16T04:42:40;100503.50;;;13.87;95.92
6349;BME280;3207;42.648;23.406;2022-10-16T04:45:08;100507.53;;;13.91;96.00
6349;BME280;3207;42.648;23.406;2022-10-16T04:47:36;100504.19;;;13.89;96.17
6349;BME280;3207;42.648;23.406;2022-10-16T04:50:04;100507.66;;;13.90;95.66
6349;BME280;3207;42.648;23.406;2022-10-16T04:52:31;100516.03;;;13.84;95.63
6349;BME280;3207;42.648;23.406;2022-10-16T04:54:58;100515.41;;;13.80;95.97
6349;BME280;3207;42.648;23.406;2022-10-16T04:57:28;100514.47;;;13.81;96.56
6349;BME280;3207;42.648;23.406;2022-10-16T04:59:55;100520.44;;;13.83;96.57
6349;BME280;3207;42.648;23.406;2022-10-16T05:02:22;100512.31;;;13.86;96.69
6349;BME280;3207;42.648;23.406;2022-10-16T05:04:50;100517.59;;;13.86;96.71
6349;BME280;3207;42.648;23.406;2022-10-16T05:07:16;100505.13;;;13.88;96.78
6349;BME280;3207;42.648;23.406;2022-10-16T05:09:43;100514.69;;;13.89;96.84
6349;BME280;3207;42.648;23.406;2022-10-16T05:12:10;100473.63;;;13.66;96.88
6349;BME280;3207;42.648;23.406;2022-10-16T05:14:37;100518.03;;;13.91;96.82
6349;BME280;3207;42.648;23.406;2022-10-16T05:17:04;100517.81;;;13.95;96.65
6349;BME280;3207;42.648;23.406;2022-10-16T05:19:31;100527.38;;;13.96;96.26
6349;BME280;3207;42.648;23.406;2022-10-16T05:21:59;100511.84;;;13.92;96.58
6349;BME280;3207;42.648;23.406;2022-10-16T05:24:26;100526.66;;;13.93;96.54
6349;BME280;3207;42.648;23.406;2022-10-16T05:26:53;100534.75;;;14.02;96.26
6349;BME280;3207;42.648;23.406;2022-10-16T05:29:20;100531.56;;;13.98;96.52
6349;BME280;3207;42.648;23.406;2022-10-16T05:31:50;100546.84;;;14.04;97.04
6349;BME280;3207;42.648;23.406;2022-10-16T05:34:17;100547.44;;;14.08;96.61
6349;BME280;3207;42.648;23.406;2022-10-16T05:36:43;100493.94;;;13.75;96.54
6349;BME280;3207;42.648;23.406;2022-10-16T05:39:13;100538.84;;;13.95;96.61
6349;BME280;3207;42.648;23.406;2022-10-16T05:41:40;100546.72;;;13.83;96.45
6349;BME280;3207;42.648;23.406;2022-10-16T05:44:07;100550.91;;;13.75;96.56
6349;BME280;3207;42.648;23.406;2022-10-16T05:46:34;100536.69;;;13.66;96.64
6349;BME280;3207;42.648;23.406;2022-10-16T05:49:00;100555.78;;;13.68;97.02
6349;BME280;3207;42.648;23.406;2022-10-16T05:51:27;100555.53;;;13.60;97.45
6349;BME280;3207;42.648;23.406;2022-10-16T05:53:54;100557.44;;;13.58;97.86
6349;BME280;3207;42.648;23.406;2022-10-16T05:56:22;100554.56;;;13.61;98.39
6349;BME280;3207;42.648;23.406;2022-10-16T05:58:49;100562.81;;;13.56;98.65
6349;BME280;3207;42.648;23.406;2022-10-16T06:01:17;100572.25;;;13.59;99.05
6349;BME280;3207;42.648;23.406;2022-10-16T06:03:46;100572.25;;;13.59;99.31
6349;BME280;3207;42.648;23.406;2022-10-16T06:06:15;100570.81;;;13.55;99.30
6349;BME280;3207;42.648;23.406;2022-10-16T06:08:43;100577.50;;;13.59;99.72
6349;BME280;3207;42.648;23.406;2022-10-16T06:11:12;100576.66;;;13.59;100.00
6349;BME280;3207;42.648;23.406;2022-10-16T06:13:41;100573.59;;;13.65;100.00
6349;BME280;3207;42.648;23.406;2022-10-16T06:16:09;100576.41;;;13.50;100.00
6349;BME280;3207;42.648;23.406;2022-10-16T06:18:36;100584.88;;;13.43;100.00
6349;BME280;3207;42.648;23.406;2022-10-16T06:21:07;100591.19;;;13.40;100.00
6349;BME280;3207;42.648;23.406;2022-10-16T06:23:34;100587.72;;;13.40;100.00
6349;BME280;3207;42.648;23.406;2022-10-16T06:26:05;100587.63;;;13.41;100.00
6349;BME280;3207;42.648;23.406;2022-10-16T06:28:32;100597.50;;;13.38;100.00
6349;BME280;3207;42.648;23.406;2022-10-16T06:31:01;100596.06;;;13.34;100.00
6349;BME280;3207;42.648;23.406;2022-10-16T06:33:28;100604.22;;;13.42;100.00
6349;BME280;3207;42.648;23.406;2022-10-16T06:36:00;100606.84;;;13.42;100.00
6349;BME280;3207;42.648;23.406;2022-10-16T06:38:26;100604.22;;;13.42;100.00
6349;BME280;3207;42.648;23.406;2022-10-16T06:40:53;100603.63;;;13.49;100.00
6349;BME280;3207;42.648;23.406;2022-10-16T06:43:20;100614.97;;;13.50;100.00
6349;BME280;3207;42.648;23.406;2022-10-16T06:45:50;100616.88;;;13.48;100.00
6349;BME280;3207;42.648;23.406;2022-10-16T06:48:19;100625.72;;;13.58;100.00
6349;BME280;3207;42.648;23.406;2022-10-16T06:50:55;100622.28;;;13.69;100.00
6349;BME280;3207;42.648;23.406;2022-10-16T06:53:22;100629.25;;;13.81;100.00
6349;BME280;3207;42.648;23.406;2022-10-16T06:55:49;100631.91;;;13.92;100.00
6349;BME280;3207;42.648;23.406;2022-10-16T06:58:16;100640.28;;;13.97;100.00
6349;BME280;3207;42.648;23.406;2022-10-16T07:00:43;100638.34;;;13.99;100.00
6349;BME280;3207;42.648;23.406;2022-10-16T07:03:09;100650.31;;;14.03;100.00
6349;BME280;3207;42.648;23.406;2022-10-16T07:05:38;100652.59;;;14.08;99.99
6349;BME280;3207;42.648;23.406;2022-10-16T07:08:05;100654.63;;;14.15;100.00
6349;BME280;3207;42.648;23.406;2022-10-16T07:10:32;100663.59;;;14.24;99.67
6349;BME280;3207;42.648;23.406;2022-10-16T07:12:59;100668.16;;;14.33;99.56
6349;BME280;3207;42.648;23.406;2022-10-16T07:15:26;100664.97;;;14.41;99.46
6349;BME280;3207;42.648;23.406;2022-10-16T07:17:53;100662.91;;;14.44;98.67
6349;BME280;3207;42.648;23.406;2022-10-16T07:20:20;100666.75;;;14.51;98.37
6349;BME280;3207;42.648;23.406;2022-10-16T07:22:48;100659.09;;;14.48;97.38
6349;BME280;3207;42.648;23.406;2022-10-16T07:25:15;100669.75;;;14.58;97.49
6349;BME280;3207;42.648;23.406;2022-10-16T07:27:42;100679.75;;;14.64;96.59
6349;BME280;3207;42.648;23.406;2022-10-16T07:30:09;100679.66;;;14.65;96.20
6349;BME280;3207;42.648;23.406;2022-10-16T07:32:36;100673.78;;;14.62;96.26
6349;BME280;3207;42.648;23.406;2022-10-16T07:35:04;100649.88;;;14.54;95.80
6349;BME280;3207;42.648;23.406;2022-10-16T07:37:30;100687.91;;;14.72;95.30
6349;BME280;3207;42.648;23.406;2022-10-16T07:39:59;100697.09;;;14.78;94.11
6349;BME280;3207;42.648;23.406;2022-10-16T07:42:27;100695.66;;;14.62;93.33
6349;BME280;3207;42.648;23.406;2022-10-16T07:44:53;100701.53;;;14.66;93.42
6349;BME280;3207;42.648;23.406;2022-10-16T07:47:20;100708.81;;;14.62;93.44
6349;BME280;3207;42.648;23.406;2022-10-16T07:49:47;100706.91;;;14.53;93.07
6349;BME280;3207;42.648;23.406;2022-10-16T07:52:14;100701.53;;;14.44;93.15
6349;BME280;3207;42.648;23.406;2022-10-16T07:54:40;100699.03;;;14.42;93.35
6349;BME280;3207;42.648;23.406;2022-10-16T07:57:09;100711.22;;;14.54;93.59
6349;BME280;3207;42.648;23.406;2022-10-16T07:59:36;100708.81;;;14.62;93.55
6349;BME280;3207;42.648;23.406;2022-10-16T08:02:02;100712.56;;;14.71;93.24
6349;BME280;3207;42.648;23.406;2022-10-16T08:04:29;100711.94;;;14.79;93.41
6349;BME280;3207;42.648;23.406;2022-10-16T08:06:56;100700.69;;;14.88;93.83
6349;BME280;3207;42.648;23.406;2022-10-16T08:09:23;100710.47;;;15.08;93.27
6349;BME280;3207;42.648;23.406;2022-10-16T08:11:50;100724.56;;;15.18;92.49
6349;BME280;3207;42.648;23.406;2022-10-16T08:14:19;100721.56;;;15.23;91.93
6349;BME280;3207;42.648;23.406;2022-10-16T08:16:46;100718.34;;;15.19;90.87
6349;BME280;3207;42.648;23.406;2022-10-16T08:19:12;100722.13;;;15.26;90.57
6349;BME280;3207;42.648;23.406;2022-10-16T08:21:41;100727.66;;;15.34;89.94
6349;BME280;3207;42.648;23.406;2022-10-16T08:24:08;100729.53;;;15.44;89.30
6349;BME280;3207;42.648;23.406;2022-10-16T08:26:35;100731.31;;;15.43;88.84
6349;BME280;3207;42.648;23.406;2022-10-16T08:29:02;100740.91;;;15.44;88.33
6349;BME280;3207;42.648;23.406;2022-10-16T08:31:30;100740.78;;;15.46;87.73
6349;BME280;3207;42.648;23.406;2022-10-16T08:33:57;100741.00;;;15.54;87.60
6349;BME280;3207;42.648;23.406;2022-10-16T08:36:24;100739.44;;;15.62;87.70
6349;BME280;3207;42.648;23.406;2022-10-16T08:38:51;100746.47;;;15.73;88.12
6349;BME280;3207;42.648;23.406;2022-10-16T08:44:42;100740.41;;;15.82;86.00
6349;BME280;3207;42.648;23.406;2022-10-16T08:47:19;100749.69;;;15.77;85.96
6349;BME280;3207;42.648;23.406;2022-10-16T08:49:55;100753.16;;;15.77;85.76
6349;BME280;3207;42.648;23.406;2022-10-16T08:52:22;100748.81;;;15.87;86.03
6349;BME280;3207;42.648;23.406;2022-10-16T08:54:53;100756.00;;;16.06;85.46
6349;BME280;3207;42.648;23.406;2022-10-16T08:57:22;100707.63;;;15.96;84.87
6349;BME280;3207;42.648;23.406;2022-10-16T08:59:51;100744.41;;;16.39;85.26
6349;BME280;3207;42.648;23.406;2022-10-16T09:02:31;100746.81;;;16.63;84.17
6349;BME280;3207;42.648;23.406;2022-10-16T09:05:06;100745.94;;;16.93;83.36
6349;BME280;3207;42.648;23.406;2022-10-16T09:07:43;100746.03;;;17.31;82.28
6349;BME280;3207;42.648;23.406;2022-10-16T09:10:24;100752.06;;;17.72;80.85
6349;BME280;3207;42.648;23.406;2022-10-16T09:12:55;100750.41;;;18.09;79.28
6349;BME280;3207;42.648;23.406;2022-10-16T09:15:29;100744.31;;;18.46;76.91
6349;BME280;3207;42.648;23.406;2022-10-16T09:18:05;100750.59;;;18.91;74.76
6349;BME280;3207;42.648;23.406;2022-10-16T09:20:40;100748.53;;;19.13;72.63
6349;BME280;3207;42.648;23.406;2022-10-16T09:23:17;100748.63;;;19.48;71.63
6349;BME280;3207;42.648;23.406;2022-10-16T09:25:47;100756.97;;;20.15;70.90
6349;BME280;3207;42.648;23.406;2022-10-16T09:28:14;100753.19;;;21.77;67.61
6349;BME280;3207;42.648;23.406;2022-10-16T09:30:41;100768.50;;;24.63;59.52
6349;BME280;3207;42.648;23.406;2022-10-16T09:33:11;100767.59;;;27.92;48.70
6349;BME280;3207;42.648;23.406;2022-10-16T09:35:40;100780.50;;;31.31;41.63
6349;BME280;3207;42.648;23.406;2022-10-16T09:38:07;100779.44;;;34.49;34.57
6349;BME280;3207;42.648;23.406;2022-10-16T09:40:36;100790.47;;;36.89;29.49
6349;BME280;3207;42.648;23.406;2022-10-16T09:43:16;100794.22;;;38.47;25.88
6349;BME280;3207;42.648;23.406;2022-10-16T09:45:54;100787.31;;;39.78;24.00
6349;BME280;3207;42.648;23.406;2022-10-16T09:48:24;100797.25;;;40.85;21.72
6349;BME280;3207;42.648;23.406;2022-10-16T09:51:02;100809.81;;;42.04;21.12
6349;BME280;3207;42.648;23.406;2022-10-16T09:53:40;100808.38;;;43.21;19.83
6349;BME280;3207;42.648;23.406;2022-10-16T09:56:10;100818.22;;;44.25;18.64
6349;BME280;3207;42.648;23.406;2022-10-16T09:58:42;100811.44;;;45.27;17.77
6349;BME280;3207;42.648;23.406;2022-10-16T10:01:12;100818.47;;;46.32;17.18
6349;BME280;3207;42.648;23.406;2022-10-16T10:03:42;100818.66;;;47.03;16.24
6349;BME280;3207;42.648;23.406;2022-10-16T10:06:18;100828.19;;;47.55;16.07
6349;BME280;3207;42.648;23.406;2022-10-16T10:08:59;100816.28;;;48.33;15.11
6349;BME280;3207;42.648;23.406;2022-10-16T10:11:50;100817.81;;;49.16;14.88
6349;BME280;3207;42.648;23.406;2022-10-16T10:14:20;100818.72;;;49.75;14.14
6349;BME280;3207;42.648;23.406;2022-10-16T10:16:49;100818.25;;;50.17;13.72
6349;BME280;3207;42.648;23.406;2022-10-16T10:19:20;100822.22;;;50.00;13.52
6349;BME280;3207;42.648;23.406;2022-10-16T10:21:48;100812.63;;;50.29;13.57
6349;BME280;3207;42.648;23.406;2022-10-16T10:24:17;100821.00;;;50.80;13.18
6349;BME280;3207;42.648;23.406;2022-10-16T10:26:49;100813.88;;;50.98;13.02
6349;BME280;3207;42.648;23.406;2022-10-16T10:29:43;100808.03;;;51.03;13.04
6349;BME280;3207;42.648;23.406;2022-10-16T10:32:21;100804.81;;;50.85;13.05
6349;BME280;3207;42.648;23.406;2022-10-16T10:35:05;100803.94;;;50.66;12.96
6349;BME280;3207;42.648;23.406;2022-10-16T10:38:01;100803.09;;;50.30;13.28
6349;BME280;3207;42.648;23.406;2022-10-16T10:40:39;100800.88;;;50.20;13.03
6349;BME280;3207;42.648;23.406;2022-10-16T10:43:15;100795.81;;;50.41;13.26
6349;BME280;3207;42.648;23.406;2022-10-16T10:45:47;100789.06;;;50.42;12.93
6349;BME280;3207;42.648;23.406;2022-10-16T10:48:34;100789.78;;;50.55;13.18
6349;BME280;3207;42.648;23.406;2022-10-16T10:51:13;100788.59;;;50.72;12.98
6349;BME280;3207;42.648;23.406;2022-10-16T10:53:50;100783.22;;;50.47;12.69
6349;BME280;3207;42.648;23.406;2022-10-16T10:56:39;100776.13;;;50.03;12.85
6349;BME280;3207;42.648;23.406;2022-10-16T10:59:20;100773.94;;;49.65;13.25
6349;BME280;3207;42.648;23.406;2022-10-16T11:01:56;100772.25;;;49.20;13.61
6349;BME280;3207;42.648;23.406;2022-10-16T11:04:54;100759.75;;;48.62;14.22
6349;BME280;3207;42.648;23.406;2022-10-16T11:07:30;100769.91;;;48.33;14.25
6349;BME280;3207;42.648;23.406;2022-10-16T11:10:02;100757.75;;;48.26;14.34
6349;BME280;3207;42.648;23.406;2022-10-16T11:12:33;100763.84;;;47.95;14.46
6349;BME280;3207;42.648;23.406;2022-10-16T11:15:07;100760.19;;;47.37;14.82
6349;BME280;3207;42.648;23.406;2022-10-16T11:17:40;100759.97;;;46.80;15.14
6349;BME280;3207;42.648;23.406;2022-10-16T11:20:13;100758.28;;;46.28;15.77
6349;BME280;3207;42.648;23.406;2022-10-16T11:22:47;100762.03;;;45.51;16.02
6349;BME280;3207;42.648;23.406;2022-10-16T11:25:19;100749.50;;;44.37;16.93
6349;BME280;3207;42.648;23.406;2022-10-16T11:27:50;100745.66;;;43.04;18.13
6349;BME280;3207;42.648;23.406;2022-10-16T11:30:21;100747.38;;;41.58;19.48
6349;BME280;3207;42.648;23.406;2022-10-16T11:32:56;100741.88;;;40.06;20.15
6349;BME280;3207;42.648;23.406;2022-10-16T11:35:37;100722.31;;;38.57;22.32
6349;BME280;3207;42.648;23.406;2022-10-16T11:38:14;100726.81;;;37.46;23.52
6349;BME280;3207;42.648;23.406;2022-10-16T11:40:43;100726.22;;;36.56;24.59
6349;BME280;3207;42.648;23.406;2022-10-16T11:43:15;100716.72;;;35.75;25.63
6349;BME280;3207;42.648;23.406;2022-10-16T11:45:46;100698.00;;;34.98;26.65
6349;BME280;3207;42.648;23.406;2022-10-16T11:48:22;100711.31;;;34.34;27.93
6349;BME280;3207;42.648;23.406;2022-10-16T11:50:53;100704.59;;;33.69;28.62
6349;BME280;3207;42.648;23.406;2022-10-16T11:53:32;100702.16;;;33.23;29.26
6349;BME280;3207;42.648;23.406;2022-10-16T11:56:03;100708.16;;;32.85;30.03
6349;BME280;3207;42.648;23.406;2022-10-16T11:58:33;100692.47;;;32.47;31.04
6349;BME280;3207;42.648;23.406;2022-10-16T12:01:15;100693.06;;;32.14;31.29
6349;BME280;3207;42.648;23.406;2022-10-16T12:03:46;100691.41;;;31.89;31.94
6349;BME280;3207;42.648;23.406;2022-10-16T12:06:25;100692.31;;;31.60;32.44
6349;BME280;3207;42.648;23.406;2022-10-16T12:08:55;100677.56;;;31.33;32.42
6349;BME280;3207;42.648;23.406;2022-10-16T12:11:34;100684.97;;;31.07;32.93
6349;BME280;3207;42.648;23.406;2022-10-16T12:14:20;100654.06;;;30.73;33.60
6349;BME280;3207;42.648;23.406;2022-10-16T12:16:54;100676.34;;;30.50;34.72
6349;BME280;3207;42.648;23.406;2022-10-16T12:19:23;100664.13;;;30.30;35.37
6349;BME280;3207;42.648;23.406;2022-10-16T12:21:51;100660.13;;;30.14;35.70
6349;BME280;3207;42.648;23.406;2022-10-16T12:24:30;100665.66;;;30.01;35.71
6349;BME280;3207;42.648;23.406;2022-10-16T12:26:58;100676.00;;;29.79;36.03
6349;BME280;3207;42.648;23.406;2022-10-16T12:29:32;100664.91;;;29.37;36.56
6349;BME280;3207;42.648;23.406;2022-10-16T12:32:01;100663.44;;;29.10;37.46
6349;BME280;3207;42.648;23.406;2022-10-16T12:34:31;100669.75;;;28.91;37.82
6349;BME280;3207;42.648;23.406;2022-10-16T12:37:14;100675.59;;;28.74;38.47
6349;BME280;3207;42.648;23.406;2022-10-16T12:39:43;100677.53;;;28.54;39.36
6349;BME280;3207;42.648;23.406;2022-10-16T12:42:23;100676.75;;;28.47;39.76
6349;BME280;3207;42.648;23.406;2022-10-16T12:44:50;100668.66;;;28.40;40.20
6349;BME280;3207;42.648;23.406;2022-10-16T12:47:22;100671.97;;;28.42;40.04
6349;BME280;3207;42.648;23.406;2022-10-16T12:49:51;100661.63;;;28.46;40.62
6349;BME280;3207;42.648;23.406;2022-10-16T12:52:28;100663.66;;;28.57;40.89
6349;BME280;3207;42.648;23.406;2022-10-16T12:54:57;100649.13;;;28.65;40.15
6349;BME280;3207;42.648;23.406;2022-10-16T12:57:43;100652.91;;;28.51;39.83
6349;BME280;3207;42.648;23.406;2022-10-16T13:00:21;100659.16;;;28.45;39.87
6349;BME280;3207;42.648;23.406;2022-10-16T13:06:07;100660.66;;;28.21;40.56
6349;BME280;3207;42.648;23.406;2022-10-16T13:08:46;100651.56;;;28.15;40.72
6349;BME280;3207;42.648;23.406;2022-10-16T13:11:26;100673.28;;;28.27;40.79
6349;BME280;3207;42.648;23.406;2022-10-16T13:14:08;100668.50;;;28.29;40.40
6349;BME280;3207;42.648;23.406;2022-10-16T13:16:51;100668.50;;;28.16;40.27
6349;BME280;3207;42.648;23.406;2022-10-16T13:19:26;100671.63;;;28.06;40.34
6349;BME280;3207;42.648;23.406;2022-10-16T13:22:03;100671.22;;;28.02;40.83
6349;BME280;3207;42.648;23.406;2022-10-16T13:24:46;100662.94;;;27.97;41.02